Aérodrome :
LOGIN :

S'inscrire | Disclaimer

   EN    FR    IT 

 










Légende :    VFR   VFR Marginal   IFR   IFR Intensif   IFR Très Intensif
Visi : 
Plafond : 
>= 8 km
>= 3000ft
5 à 8 km
1000 à 3000 ft
1500m à 5 km
500 à 1000 ft
800 à 1500m
200 à 500 ft
< 800m
< 200 ft
Symboles :   Orages  Brouillard  Fortes neiges  Fortes précipitations  Vent > 20 kt
SIGMETs :   Divers  Orages  Givrage  Turbulence  Onde Orograph.  Cendres Volcan.







- Altitude de l'aérodrome : 202 ft
- Code IATA : LGW
- Voir les cartes d'approche


EGKK - London Gatwick

DERNIER METAR :
  • 211520Z 22009KT 190V260 9999 SCT021 BKN042 13/10 Q1009

METARs EXPIRÉS :
  • 211450Z 23008KT 9999 FEW021 BKN040 13/10 Q1009
  • 211420Z 23010KT 9999 FEW021 SCT039 13/10 Q1009
  • 211350Z 23008KT 9999 FEW020 SCT032 13/09 Q1010
  • 211320Z 23010KT 9999 BKN020 13/09 Q1010
  • 211250Z 23010KT 9999 SCT019 SCT026 13/09 Q1010

TAF TAF EGKK
Valide du 21 à 12h jusqu'au 22 à 18h UTC


211100Z 2112/2218 24010KT 9999 SCT020
PROB40
TEMPO 2112/2121 21015G25KT
TEMPO 2121/2218 23015G28KT
PROB30
TEMPO 2121/2208 BKN014
PROB40
TEMPO 2210/2218 20020G32KT
Pas de NOTAMs connus pour ce terrain.



MET'MAP, la Météo Aéronautique d'un coup d'oeil ! - Copyright ORBIFLY Décembre 2007 - Disclaimer

ORBIFLY MET'MAP TEAM :

Programmation & Développement : Alexandra Zaïnal
Conception & Développement : Baudouin d'Aumeries
Co-Programmation & Développement : Marc-Olivier Méhu
Soutien technique & logistique : Manuel Goepfert

Contact : metmap@orbifly.com




SOURCES & CREDITS :

   NOAA